createdAt,value
2018-12-17T00:00:56.419Z,-2.21
2018-12-17T00:02:04.479Z,-2.29
2018-12-17T00:03:12.502Z,-2.34
2018-12-17T00:04:20.538Z,-2.42
2018-12-17T00:05:28.622Z,-2.46
2018-12-17T00:06:36.666Z,-2.48
2018-12-17T00:07:44.701Z,-2.49
2018-12-17T00:08:52.753Z,-2.49
2018-12-17T00:10:00.830Z,-2.55
2018-12-17T00:11:08.842Z,-2.50
2018-12-17T00:12:16.909Z,-2.53
2018-12-17T00:13:24.949Z,-2.58
2018-12-17T00:14:33.027Z,-2.64
2018-12-17T00:15:41.063Z,-2.60
2018-12-17T00:16:49.159Z,-2.56
2018-12-17T00:17:57.143Z,-2.66
2018-12-17T00:19:05.221Z,-2.63
2018-12-17T00:20:13.259Z,-2.61
2018-12-17T00:21:21.323Z,-2.60
2018-12-17T00:22:29.390Z,-2.68
2018-12-17T00:23:37.436Z,-2.61
2018-12-17T00:24:45.494Z,-2.63
2018-12-17T00:25:53.570Z,-2.58
2018-12-17T00:27:01.600Z,-2.53
2018-12-17T00:28:09.638Z,-2.55
2018-12-17T00:29:17.713Z,-2.50
2018-12-17T00:30:25.721Z,-2.52
2018-12-17T00:31:33.783Z,-2.46
2018-12-17T00:32:41.842Z,-2.45
2018-12-17T00:33:49.918Z,-2.43
2018-12-17T00:34:57.956Z,-2.39
2018-12-17T00:36:05.994Z,-2.45
2018-12-17T00:37:14.043Z,-2.43
2018-12-17T00:38:22.102Z,-2.46
2018-12-17T00:39:30.139Z,-2.40
2018-12-17T00:40:38.200Z,-2.37
2018-12-17T00:41:46.257Z,-2.43
2018-12-17T00:42:54.291Z,-2.43
2018-12-17T00:44:02.368Z,-2.45
2018-12-17T00:45:10.396Z,-2.42
2018-12-17T00:46:18.449Z,-2.46
2018-12-17T00:47:26.523Z,-2.46
2018-12-17T00:48:34.603Z,-2.56
2018-12-17T00:49:42.593Z,-2.55
2018-12-17T00:50:50.659Z,-2.53
2018-12-17T00:51:58.712Z,-2.46
2018-12-17T00:53:06.758Z,-2.40
2018-12-17T00:54:14.801Z,-2.35
2018-12-17T00:55:22.866Z,-2.48
2018-12-17T00:56:30.931Z,-2.43
2018-12-17T00:57:38.968Z,-2.45
2018-12-17T00:58:47.019Z,-2.40
2018-12-17T00:59:55.035Z,-2.39
2018-12-17T01:01:03.127Z,-2.56
2018-12-17T01:02:11.179Z,-2.53
2018-12-17T01:03:19.246Z,-2.58
2018-12-17T01:04:27.265Z,-2.79
2018-12-17T01:05:35.338Z,-2.82
2018-12-17T01:06:43.402Z,-2.82
2018-12-17T01:07:51.470Z,-2.86
2018-12-17T01:08:59.514Z,-2.84
2018-12-17T01:10:07.544Z,-2.81
2018-12-17T01:11:15.576Z,-2.77
2018-12-17T01:12:23.641Z,-2.73
2018-12-17T01:13:31.697Z,-2.77
2018-12-17T01:14:39.734Z,-2.81
2018-12-17T01:15:47.794Z,-2.77
2018-12-17T01:16:55.845Z,-2.81
2018-12-17T01:18:03.899Z,-2.85
2018-12-17T01:19:11.931Z,-2.86
2018-12-17T01:20:19.996Z,-2.74
2018-12-17T01:21:28.042Z,-2.81
2018-12-17T01:22:36.098Z,-2.84
2018-12-17T01:23:44.153Z,-2.84
2018-12-17T01:24:52.207Z,-2.82
2018-12-17T01:26:00.239Z,-2.77
2018-12-17T01:27:08.294Z,-2.74
2018-12-17T01:28:22.056Z,-2.84
2018-12-17T01:29:24.397Z,-2.81
2018-12-17T01:30:32.448Z,-2.77
2018-12-17T01:31:40.489Z,-2.67
2018-12-17T01:32:48.596Z,-2.79
2018-12-17T01:33:56.602Z,-2.77
2018-12-17T01:35:04.657Z,-2.63
2018-12-17T01:36:12.715Z,-2.73
2018-12-17T01:37:20.761Z,-2.82
2018-12-17T01:38:28.817Z,-2.71
2018-12-17T01:39:36.862Z,-2.81
2018-12-17T01:40:44.911Z,-2.79
2018-12-17T01:41:52.976Z,-2.78
2018-12-17T01:43:01.018Z,-2.79
2018-12-17T01:44:09.067Z,-2.78
2018-12-17T01:45:17.108Z,-2.86
2018-12-17T01:46:25.151Z,-2.73
2018-12-17T01:47:33.210Z,-2.71
2018-12-17T01:48:41.263Z,-2.74
2018-12-17T01:49:49.304Z,-2.77
2018-12-17T01:50:57.385Z,-2.71
2018-12-17T01:52:05.406Z,-2.70
2018-12-17T01:53:13.485Z,-2.63
2018-12-17T01:54:21.526Z,-2.60
2018-12-17T01:55:29.585Z,-2.63
2018-12-17T01:56:37.621Z,-2.63
2018-12-17T01:57:45.659Z,-2.78
2018-12-17T01:58:53.731Z,-2.84
2018-12-17T02:00:01.794Z,-2.89
2018-12-17T02:01:09.824Z,-2.77
2018-12-17T02:02:17.887Z,-2.81
2018-12-17T02:03:25.931Z,-2.79
2018-12-17T02:04:33.975Z,-2.84
2018-12-17T02:05:42.076Z,-2.79
2018-12-17T02:06:50.088Z,-2.79
2018-12-17T02:07:58.153Z,-2.82
2018-12-17T02:09:06.161Z,-2.88
2018-12-17T02:10:14.246Z,-2.82
2018-12-17T02:11:22.297Z,-2.84
2018-12-17T02:12:30.344Z,-2.91
2018-12-17T02:13:38.386Z,-2.92
2018-12-17T02:14:46.456Z,-2.94
2018-12-17T02:15:54.496Z,-2.89
2018-12-17T02:17:02.559Z,-2.92
2018-12-17T02:18:10.601Z,-2.92
2018-12-17T02:19:18.644Z,-2.92
2018-12-17T02:20:26.694Z,-3.02
2018-12-17T02:21:34.751Z,-2.91
2018-12-17T02:22:42.791Z,-2.94
2018-12-17T02:23:50.845Z,-2.94
2018-12-17T02:24:58.907Z,-2.97
2018-12-17T02:26:06.949Z,-2.91
2018-12-17T02:27:14.998Z,-2.96
2018-12-17T02:28:23.045Z,-2.92
2018-12-17T02:29:31.110Z,-2.92
2018-12-17T02:30:39.165Z,-2.92
2018-12-17T02:31:47.207Z,-2.91
2018-12-17T02:32:55.261Z,-2.92
2018-12-17T02:34:03.325Z,-2.99
2018-12-17T02:35:11.350Z,-3.03
2018-12-17T02:36:19.410Z,-2.99
2018-12-17T02:37:27.890Z,-2.97
2018-12-17T02:38:35.513Z,-2.92
2018-12-17T02:39:43.565Z,-2.92
2018-12-17T02:40:51.613Z,-2.97
2018-12-17T02:41:59.667Z,-2.99
2018-12-17T02:43:07.707Z,-2.92
2018-12-17T02:44:15.762Z,-3.02
2018-12-17T02:45:23.813Z,-3.00
2018-12-17T02:46:31.873Z,-3.02
2018-12-17T02:47:39.921Z,-3.05
2018-12-17T02:48:47.972Z,-2.99
2018-12-17T02:49:56.030Z,-3.02
2018-12-17T02:51:04.052Z,-3.06
2018-12-17T02:52:12.136Z,-2.96
2018-12-17T02:53:20.185Z,-3.07
2018-12-17T02:54:28.255Z,-3.09
2018-12-17T02:55:36.271Z,-3.05
2018-12-17T02:56:44.336Z,-3.02
2018-12-17T02:57:52.406Z,-3.18
2018-12-17T02:59:00.447Z,-3.05
2018-12-17T03:00:08.481Z,-3.03
2018-12-17T03:01:16.529Z,-3.15
2018-12-17T03:02:24.597Z,-3.12
2018-12-17T03:03:32.644Z,-3.25
2018-12-17T03:04:40.726Z,-3.14
2018-12-17T03:05:48.734Z,-3.21
2018-12-17T03:06:56.774Z,-3.21
2018-12-17T03:08:04.830Z,-3.23
2018-12-17T03:09:12.905Z,-3.24
2018-12-17T03:10:20.932Z,-3.21
2018-12-17T03:11:28.997Z,-3.23
2018-12-17T03:12:37.032Z,-3.18
2018-12-17T03:13:45.090Z,-3.24
2018-12-17T03:14:53.159Z,-3.18
2018-12-17T03:16:01.197Z,-3.20
2018-12-17T03:17:09.256Z,-3.25
2018-12-17T03:18:17.290Z,-3.24
2018-12-17T03:19:25.350Z,-3.18
2018-12-17T03:20:33.401Z,-3.14
2018-12-17T03:21:41.445Z,-3.14
2018-12-17T03:22:49.518Z,-3.21
2018-12-17T03:23:57.555Z,-3.17
2018-12-17T03:25:05.612Z,-3.17
2018-12-17T03:26:13.648Z,-3.18
2018-12-17T03:27:21.704Z,-3.24
2018-12-17T03:28:29.778Z,-3.20
2018-12-17T03:29:37.816Z,-3.18
2018-12-17T03:30:45.857Z,-3.24
2018-12-17T03:31:53.889Z,-3.20
2018-12-17T03:33:01.958Z,-3.20
2018-12-17T03:34:10.019Z,-3.20
2018-12-17T03:35:18.061Z,-3.15
2018-12-17T03:36:26.125Z,-3.10
2018-12-17T03:37:34.155Z,-3.03
2018-12-17T03:38:42.223Z,-3.07
2018-12-17T03:39:50.271Z,-2.94
2018-12-17T03:40:58.304Z,-2.99
2018-12-17T03:42:06.375Z,-2.96
2018-12-17T03:43:14.413Z,-3.05
2018-12-17T03:44:22.496Z,-2.91
2018-12-17T03:45:30.506Z,-2.97
2018-12-17T03:46:38.568Z,-2.96
2018-12-17T03:47:46.624Z,-2.92
2018-12-17T03:48:54.674Z,-2.99
2018-12-17T03:50:02.696Z,-3.03
2018-12-17T03:51:10.810Z,-2.94
2018-12-17T03:52:18.821Z,-3.00
2018-12-17T03:53:26.907Z,-2.94
2018-12-17T03:54:34.915Z,-2.99
2018-12-17T03:55:42.998Z,-2.97
2018-12-17T03:56:51.022Z,-2.99
2018-12-17T03:57:59.090Z,-3.03
2018-12-17T03:59:07.133Z,-2.94
2018-12-17T04:00:15.176Z,-3.03
2018-12-17T04:01:23.222Z,-3.07
2018-12-17T04:02:31.288Z,-3.06
2018-12-17T04:03:39.336Z,-3.14
2018-12-17T04:04:47.384Z,-3.00
2018-12-17T04:05:55.410Z,-2.92
2018-12-17T04:07:03.475Z,-2.96
2018-12-17T04:08:11.557Z,-2.92
2018-12-17T04:09:19.604Z,-3.02
2018-12-17T04:10:27.639Z,-2.94
2018-12-17T04:11:35.670Z,-3.03
2018-12-17T04:12:43.748Z,-2.96
2018-12-17T04:13:51.788Z,-2.94
2018-12-17T04:14:59.831Z,-2.94
2018-12-17T04:16:07.906Z,-3.09
2018-12-17T04:17:16.021Z,-2.99
2018-12-17T04:18:24.022Z,-3.00
2018-12-17T04:19:32.044Z,-3.02
2018-12-17T04:20:40.111Z,-3.07
2018-12-17T04:21:48.176Z,-2.99
2018-12-17T04:22:56.212Z,-2.99
2018-12-17T04:24:04.255Z,-2.94
2018-12-17T04:25:12.326Z,-2.99
2018-12-17T04:26:20.348Z,-3.06
2018-12-17T04:27:28.432Z,-3.03
2018-12-17T04:28:36.448Z,-2.92
2018-12-17T04:29:44.509Z,-3.03
2018-12-17T04:30:52.566Z,-2.89
2018-12-17T04:32:00.615Z,-2.96
2018-12-17T04:33:08.657Z,-2.91
2018-12-17T04:34:16.718Z,-2.81
2018-12-17T04:35:24.748Z,-2.78
2018-12-17T04:36:32.820Z,-2.70
2018-12-17T04:37:40.864Z,-2.74
2018-12-17T04:38:50.538Z,-2.64
2018-12-17T04:39:56.965Z,-2.61
2018-12-17T04:41:05.016Z,-2.60
2018-12-17T04:42:13.113Z,-2.52
2018-12-17T04:43:21.161Z,-2.52
2018-12-17T04:44:29.167Z,-2.50
2018-12-17T04:45:37.233Z,-2.45
2018-12-17T04:46:45.265Z,-2.46
2018-12-17T04:47:53.335Z,-2.40
2018-12-17T04:49:01.380Z,-2.43
2018-12-17T04:50:09.434Z,-2.40
2018-12-17T04:51:17.484Z,-2.29
2018-12-17T04:52:25.544Z,-2.30
2018-12-17T04:53:33.587Z,-2.32
2018-12-17T04:54:41.649Z,-2.35
2018-12-17T04:55:49.675Z,-2.35
2018-12-17T04:56:57.753Z,-2.40
2018-12-17T04:58:05.794Z,-2.24
2018-12-17T04:59:14.712Z,-2.30
2018-12-17T05:00:21.906Z,-2.21
2018-12-17T05:01:29.944Z,-2.27
2018-12-17T05:02:37.985Z,-2.27
2018-12-17T05:03:46.031Z,-2.16
2018-12-17T05:04:54.122Z,-2.26
2018-12-17T05:06:02.153Z,-2.23
2018-12-17T05:07:10.214Z,-2.13
2018-12-17T05:08:18.257Z,-2.13
2018-12-17T05:09:26.319Z,-2.15
2018-12-17T05:10:34.353Z,-2.12
2018-12-17T05:11:42.416Z,-2.18
2018-12-17T05:12:50.467Z,-2.21
2018-12-17T05:13:58.549Z,-2.13
2018-12-17T05:15:06.581Z,-2.12
2018-12-17T05:16:14.606Z,-2.16
2018-12-17T05:17:22.671Z,-2.08
2018-12-17T05:18:30.718Z,-2.12
2018-12-17T05:19:38.780Z,-2.09
2018-12-17T05:20:46.825Z,-1.97
2018-12-17T05:21:54.869Z,-1.94
2018-12-17T05:23:02.942Z,-1.94
2018-12-17T05:24:10.988Z,-2.02
2018-12-17T05:25:19.034Z,-2.00
2018-12-17T05:26:27.075Z,-1.90
2018-12-17T05:27:35.116Z,-1.73
2018-12-17T05:28:43.205Z,-1.72
2018-12-17T05:29:51.240Z,-1.73
2018-12-17T05:30:59.287Z,-1.69
2018-12-17T05:32:07.334Z,-1.66
2018-12-17T05:33:15.397Z,-1.59
2018-12-17T05:34:23.452Z,-1.61
2018-12-17T05:35:31.512Z,-1.58
2018-12-17T05:36:39.557Z,-1.62
2018-12-17T05:37:47.613Z,-1.58
2018-12-17T05:38:55.661Z,-1.55
2018-12-17T05:40:03.708Z,-1.64
2018-12-17T05:41:11.771Z,-1.59
2018-12-17T05:42:19.826Z,-1.62
2018-12-17T05:43:27.857Z,-1.61
2018-12-17T05:44:35.909Z,-1.52
2018-12-17T05:45:43.953Z,-1.46
2018-12-17T05:46:52.023Z,-1.52
2018-12-17T05:48:00.066Z,-1.45
2018-12-17T05:49:08.134Z,-1.49
2018-12-17T05:50:16.183Z,-1.43
2018-12-17T05:51:24.215Z,-1.40
2018-12-17T05:52:32.302Z,-1.34
2018-12-17T05:53:40.350Z,-1.37
2018-12-17T05:54:48.418Z,-1.30
2018-12-17T05:55:56.428Z,-1.33
2018-12-17T05:57:04.481Z,-1.31
2018-12-17T05:58:12.549Z,-1.41
2018-12-17T05:59:20.622Z,-1.33
2018-12-17T06:00:28.633Z,-1.35
2018-12-17T06:01:36.696Z,-1.37
2018-12-17T06:02:44.746Z,-1.28
2018-12-17T06:03:52.809Z,-1.35
2018-12-17T06:05:00.860Z,-1.38
2018-12-17T06:06:08.900Z,-1.23
2018-12-17T06:07:16.959Z,-1.19
2018-12-17T06:08:25.032Z,-1.09
2018-12-17T06:09:33.075Z,-1.25
2018-12-17T06:10:41.106Z,-1.23
2018-12-17T06:11:49.163Z,-1.23
2018-12-17T06:12:57.202Z,-1.28
2018-12-17T06:14:05.280Z,-1.25
2018-12-17T06:15:13.329Z,-1.23
2018-12-17T06:16:21.378Z,-1.22
2018-12-17T06:17:29.468Z,-1.22
2018-12-17T06:18:37.490Z,-1.16
2018-12-17T06:19:45.546Z,-1.27
2018-12-17T06:20:53.580Z,-1.22
2018-12-17T06:22:01.667Z,-1.27
2018-12-17T06:23:10.053Z,-1.12
2018-12-17T06:24:17.752Z,-1.20
2018-12-17T06:25:25.818Z,-1.16
2018-12-17T06:26:33.833Z,-1.13
2018-12-17T06:27:41.907Z,-1.12
2018-12-17T06:28:49.972Z,-1.12
2018-12-17T06:29:57.998Z,-1.05
2018-12-17T06:31:06.050Z,-1.02
2018-12-17T06:32:14.103Z,-1.04
2018-12-17T06:33:22.175Z,-1.10
2018-12-17T06:34:30.213Z,-0.95
2018-12-17T06:35:38.258Z,-0.99
2018-12-17T06:36:46.317Z,-0.99
2018-12-17T06:37:54.398Z,-0.85
2018-12-17T06:39:02.422Z,-1.07
2018-12-17T06:40:10.653Z,-0.91
2018-12-17T06:41:18.541Z,-0.94
2018-12-17T06:42:26.605Z,-0.91
2018-12-17T06:43:34.635Z,-0.79
2018-12-17T06:44:42.686Z,-0.83
2018-12-17T06:45:50.757Z,-0.76
2018-12-17T06:46:58.804Z,-0.69
2018-12-17T06:48:06.849Z,-0.78
2018-12-17T06:49:14.873Z,-0.72
2018-12-17T06:50:22.937Z,-0.72
2018-12-17T06:51:30.998Z,-0.67
2018-12-17T06:52:39.052Z,-0.73
2018-12-17T06:53:47.124Z,-0.69
2018-12-17T06:54:55.169Z,-0.69
2018-12-17T06:56:03.207Z,-0.69
2018-12-17T06:57:11.270Z,-0.72
2018-12-17T06:58:19.297Z,-0.55
2018-12-17T06:59:27.358Z,-0.57
2018-12-17T07:00:35.434Z,-0.55
2018-12-17T07:01:43.478Z,-0.57
2018-12-17T07:02:51.536Z,-0.49
2018-12-17T07:03:59.578Z,-0.47
2018-12-17T07:05:07.643Z,-0.44
2018-12-17T07:06:15.655Z,-0.49
2018-12-17T07:07:23.744Z,-0.46
2018-12-17T07:08:31.791Z,-0.51
2018-12-17T07:09:39.849Z,-0.49
2018-12-17T07:10:47.911Z,-0.37
2018-12-17T07:11:55.936Z,-0.40
2018-12-17T07:13:04.022Z,-0.37
2018-12-17T07:14:12.048Z,-0.42
2018-12-17T07:15:20.105Z,-0.36
2018-12-17T07:16:28.194Z,-0.44
2018-12-17T07:17:36.224Z,-0.31
2018-12-17T07:18:44.278Z,-0.28
2018-12-17T07:19:52.309Z,-0.36
2018-12-17T07:21:00.418Z,-0.33
2018-12-17T07:22:08.415Z,-0.31
2018-12-17T07:23:16.502Z,-0.29
2018-12-17T07:24:24.554Z,-0.29
2018-12-17T07:25:32.589Z,-0.31
2018-12-17T07:26:40.657Z,-0.31
2018-12-17T07:27:48.707Z,-0.25
2018-12-17T07:28:56.758Z,-0.29
2018-12-17T07:30:04.772Z,-0.28
2018-12-17T07:31:12.856Z,-0.31
2018-12-17T07:32:20.902Z,-0.21
2018-12-17T07:33:28.954Z,-0.22
2018-12-17T07:34:37.015Z,-0.18
2018-12-17T07:35:45.090Z,-0.21
2018-12-17T07:36:53.124Z,-0.22
2018-12-17T07:38:01.166Z,-0.22
2018-12-17T07:39:09.219Z,-0.16
2018-12-17T07:40:17.284Z,-0.10
2018-12-17T07:41:25.323Z,-0.11
2018-12-17T07:42:33.397Z,-0.03
2018-12-17T07:43:41.434Z,-0.04
2018-12-17T07:44:49.506Z,-0.07
2018-12-17T07:45:57.819Z,0.08
2018-12-17T07:47:05.574Z,0.07
2018-12-17T07:48:13.655Z,0.04
2018-12-17T07:49:21.701Z,0.10
2018-12-17T07:50:29.735Z,0.13
2018-12-17T07:51:37.799Z,0.15
2018-12-17T07:52:45.842Z,0.07
2018-12-17T07:53:53.905Z,0.23
2018-12-17T07:55:01.963Z,0.24
2018-12-17T07:56:10.006Z,0.20
2018-12-17T07:57:18.061Z,0.24
2018-12-17T07:58:26.132Z,0.28
2018-12-17T07:59:34.173Z,0.29
2018-12-17T08:00:42.207Z,0.35
2018-12-17T08:01:50.286Z,0.32
2018-12-17T08:02:58.331Z,0.29
2018-12-17T08:04:06.400Z,0.28
2018-12-17T08:05:14.431Z,0.29
2018-12-17T08:06:22.514Z,0.29
2018-12-17T08:07:30.639Z,0.26
2018-12-17T08:08:38.601Z,0.26
2018-12-17T08:09:46.651Z,0.26
2018-12-17T08:10:54.711Z,0.26
2018-12-17T08:12:02.770Z,0.23
2018-12-17T08:13:10.831Z,0.26
2018-12-17T08:14:18.867Z,0.31
2018-12-17T08:15:26.916Z,0.21
2018-12-17T08:16:34.995Z,0.20
2018-12-17T08:17:43.034Z,0.28
2018-12-17T08:18:51.082Z,0.21
2018-12-17T08:19:59.137Z,0.28
2018-12-17T08:21:07.220Z,0.10
2018-12-17T08:22:15.243Z,0.15
2018-12-17T08:23:23.305Z,0.24
2018-12-17T08:24:31.381Z,0.28
2018-12-17T08:25:39.404Z,0.24
2018-12-17T08:26:47.458Z,0.36
2018-12-17T08:27:55.502Z,0.39
2018-12-17T08:29:03.556Z,0.42
2018-12-17T08:30:11.637Z,0.46
2018-12-17T08:31:19.657Z,0.53
2018-12-17T08:32:27.731Z,0.60
2018-12-17T08:33:35.761Z,0.66
2018-12-17T08:34:43.799Z,0.66
2018-12-17T08:35:51.886Z,0.75
2018-12-17T08:36:59.929Z,0.70
2018-12-17T08:38:07.997Z,0.88
2018-12-17T08:39:16.037Z,0.84
2018-12-17T08:40:24.079Z,0.84
2018-12-17T08:41:32.159Z,0.91
2018-12-17T08:42:40.195Z,0.88
2018-12-17T08:43:48.258Z,0.90
2018-12-17T08:44:56.305Z,0.97
2018-12-17T08:46:04.356Z,0.96
2018-12-17T08:47:12.413Z,1.06
2018-12-17T08:48:20.550Z,1.04
2018-12-17T08:49:28.533Z,1.12
2018-12-17T08:50:36.572Z,1.09
2018-12-17T08:51:44.636Z,1.11
2018-12-17T08:52:52.694Z,1.16
2018-12-17T08:54:00.739Z,1.14
2018-12-17T08:55:08.796Z,1.16
2018-12-17T08:56:16.843Z,1.16
2018-12-17T08:57:24.899Z,1.29
2018-12-17T08:58:32.946Z,1.24
2018-12-17T08:59:41.000Z,1.33
2018-12-17T09:00:49.067Z,1.37
2018-12-17T09:01:57.128Z,1.45
2018-12-17T09:03:05.162Z,1.52
2018-12-17T09:04:13.234Z,1.48
2018-12-17T09:05:21.292Z,1.50
2018-12-17T09:06:29.342Z,1.48
2018-12-17T09:07:37.414Z,1.62
2018-12-17T09:08:45.440Z,1.51
2018-12-17T09:09:53.506Z,1.55
2018-12-17T09:11:02.474Z,1.52
2018-12-17T09:12:09.608Z,1.58
2018-12-17T09:13:17.649Z,1.40
2018-12-17T09:14:25.714Z,1.54
2018-12-17T09:15:33.777Z,1.50
2018-12-17T09:16:41.840Z,1.51
2018-12-17T09:17:49.901Z,1.51
2018-12-17T09:18:57.988Z,1.54
2018-12-17T09:20:05.996Z,1.63
2018-12-17T09:21:14.045Z,1.72
2018-12-17T09:22:22.110Z,1.69
2018-12-17T09:23:30.146Z,1.65
2018-12-17T09:24:38.217Z,1.80
2018-12-17T09:25:46.298Z,1.86
2018-12-17T09:26:54.324Z,1.84
2018-12-17T09:28:02.348Z,1.86
2018-12-17T09:29:10.466Z,2.03
2018-12-17T09:30:18.732Z,1.88
2018-12-17T09:31:26.564Z,1.91
2018-12-17T09:32:34.606Z,1.98
2018-12-17T09:33:42.773Z,1.98
2018-12-17T09:34:50.715Z,2.06
2018-12-17T09:35:58.741Z,2.16
2018-12-17T09:37:06.808Z,2.25
2018-12-17T09:38:14.862Z,2.21
2018-12-17T09:39:22.926Z,2.53
2018-12-17T09:40:30.970Z,2.52
2018-12-17T09:41:39.029Z,2.48
2018-12-17T09:42:47.078Z,2.48
2018-12-17T09:43:55.119Z,2.60
2018-12-17T09:45:03.200Z,2.61
2018-12-17T09:46:11.257Z,2.60
2018-12-17T09:47:19.303Z,2.60
2018-12-17T09:48:27.373Z,2.52
2018-12-17T09:49:35.406Z,2.61
2018-12-17T09:50:43.495Z,2.64
2018-12-17T09:51:51.520Z,2.67
2018-12-17T09:52:59.586Z,2.75
2018-12-17T09:54:07.658Z,2.85
2018-12-17T09:55:15.703Z,2.89
2018-12-17T09:56:23.754Z,2.90
2018-12-17T09:57:31.813Z,2.93
2018-12-17T09:58:39.840Z,2.95
2018-12-17T09:59:47.911Z,3.05
2018-12-17T10:00:56.007Z,3.00
2018-12-17T10:02:04.021Z,3.10
2018-12-17T10:03:12.072Z,3.10
2018-12-17T10:04:20.154Z,3.08
2018-12-17T10:05:28.194Z,3.10
2018-12-17T10:06:36.252Z,3.00
2018-12-17T10:07:44.285Z,2.97
2018-12-17T10:08:52.532Z,3.05
2018-12-17T10:10:00.435Z,3.10
2018-12-17T10:11:08.521Z,3.06
2018-12-17T10:12:16.515Z,3.06
2018-12-17T10:13:24.604Z,3.10
2018-12-17T10:14:32.653Z,3.10
2018-12-17T10:15:40.701Z,3.15
2018-12-17T10:16:48.759Z,3.26
2018-12-17T10:17:56.806Z,3.20
2018-12-17T10:19:07.361Z,3.24
2018-12-17T10:20:12.924Z,3.28
2018-12-17T10:21:20.999Z,3.28
2018-12-17T10:22:29.033Z,3.26
2018-12-17T10:23:37.127Z,3.28
2018-12-17T10:24:45.170Z,3.28
2018-12-17T10:25:53.214Z,3.23
2018-12-17T10:27:01.267Z,3.28
2018-12-17T10:28:09.315Z,3.26
2018-12-17T10:29:17.377Z,3.24
2018-12-17T10:30:32.260Z,3.29
2018-12-17T10:31:33.502Z,3.32
2018-12-17T10:32:41.532Z,3.29
2018-12-17T10:33:49.664Z,3.29
2018-12-17T10:34:57.640Z,3.28
2018-12-17T10:36:05.688Z,3.24
2018-12-17T10:37:13.766Z,3.21
2018-12-17T10:38:21.811Z,3.32
2018-12-17T10:39:29.872Z,3.32
2018-12-17T10:40:37.937Z,3.35
2018-12-17T10:41:46.017Z,3.36
2018-12-17T10:42:54.038Z,3.33
2018-12-17T10:44:02.084Z,3.35
2018-12-17T10:45:10.225Z,3.36
2018-12-17T10:46:18.199Z,3.39
2018-12-17T10:47:26.275Z,3.39
2018-12-17T10:48:34.321Z,3.39
2018-12-17T10:49:42.366Z,3.40
2018-12-17T10:50:50.444Z,3.40
2018-12-17T10:51:58.494Z,3.42
2018-12-17T10:53:06.544Z,3.32
2018-12-17T10:54:14.613Z,3.48
2018-12-17T10:55:23.206Z,3.51
2018-12-17T10:56:30.708Z,3.50
2018-12-17T10:57:38.756Z,3.54
2018-12-17T10:58:46.838Z,3.48
2018-12-17T10:59:54.890Z,3.35
2018-12-17T11:01:02.935Z,3.26
2018-12-17T11:02:11.016Z,3.26
2018-12-17T11:03:19.336Z,3.24
2018-12-17T11:04:27.109Z,3.32
2018-12-17T11:05:35.168Z,3.32
2018-12-17T11:06:43.231Z,3.39
2018-12-17T11:07:51.316Z,3.36
2018-12-17T11:08:59.333Z,3.35
2018-12-17T11:10:07.383Z,3.40
2018-12-17T11:11:15.428Z,3.33
2018-12-17T11:12:23.505Z,3.33
2018-12-17T11:13:31.978Z,3.36
2018-12-17T11:14:39.631Z,3.36
2018-12-17T11:15:47.664Z,3.43
2018-12-17T11:16:55.757Z,3.55
2018-12-17T11:18:03.790Z,3.57
2018-12-17T11:19:11.853Z,3.58
2018-12-17T11:20:19.893Z,3.47
2018-12-17T11:21:28.489Z,3.60
2018-12-17T11:22:36.253Z,3.58
2018-12-17T11:23:44.672Z,3.57
2018-12-17T11:24:52.597Z,3.65
2018-12-17T11:26:00.680Z,3.61
2018-12-17T11:27:08.731Z,3.72
2018-12-17T11:28:16.451Z,3.61
2018-12-17T11:29:24.356Z,3.66
2018-12-17T11:30:32.413Z,3.75
2018-12-17T11:31:40.467Z,3.79
2018-12-17T11:32:48.528Z,3.79
2018-12-17T11:33:56.600Z,3.86
2018-12-17T11:35:04.791Z,3.79
2018-12-17T11:36:12.781Z,3.79
2018-12-17T11:37:20.737Z,3.88
2018-12-17T11:38:28.820Z,3.86
2018-12-17T11:39:36.850Z,3.93
2018-12-17T11:40:44.908Z,3.91
2018-12-17T11:41:53.216Z,3.90
2018-12-17T11:43:01.020Z,3.88
2018-12-17T11:44:09.083Z,3.88
2018-12-17T11:45:17.152Z,4.05
2018-12-17T11:46:25.199Z,4.04
2018-12-17T11:47:33.256Z,4.09
2018-12-17T11:48:41.568Z,4.11
2018-12-17T11:49:49.379Z,4.02
2018-12-17T11:50:57.421Z,4.23
2018-12-17T11:52:05.490Z,4.00
2018-12-17T11:53:13.532Z,4.06
2018-12-17T11:54:21.602Z,4.16
2018-12-17T11:55:29.632Z,4.12
2018-12-17T11:56:37.699Z,4.12
2018-12-17T11:57:45.761Z,4.20
2018-12-17T11:58:54.167Z,4.12
2018-12-17T12:00:01.915Z,4.14
2018-12-17T12:01:09.942Z,4.16
2018-12-17T12:02:17.997Z,4.32
2018-12-17T12:03:26.041Z,4.20
2018-12-17T12:04:34.120Z,4.15
2018-12-17T12:05:42.142Z,4.24
2018-12-17T12:06:50.233Z,4.20
2018-12-17T12:07:58.273Z,4.06
2018-12-17T12:09:06.307Z,4.14
2018-12-17T12:10:14.384Z,4.15
2018-12-17T12:11:22.434Z,4.18
2018-12-17T12:12:30.515Z,4.09
2018-12-17T12:13:38.558Z,4.12
2018-12-17T12:14:46.637Z,4.14
2018-12-17T12:15:54.672Z,4.09
2018-12-17T12:17:02.727Z,4.20
2018-12-17T12:18:10.767Z,4.11
2018-12-17T12:19:18.856Z,4.27
2018-12-17T12:20:26.905Z,4.20
2018-12-17T12:21:35.001Z,4.18
2018-12-17T12:22:43.251Z,4.15
2018-12-17T12:23:51.067Z,4.18
2018-12-17T12:24:59.114Z,4.16
2018-12-17T12:26:07.179Z,4.20
2018-12-17T12:27:15.238Z,4.27
2018-12-17T12:28:23.284Z,4.42
2018-12-17T12:29:31.352Z,4.36
2018-12-17T12:30:39.395Z,4.36
2018-12-17T12:31:47.478Z,4.41
2018-12-17T12:32:55.523Z,4.36
2018-12-17T12:34:03.595Z,4.37
2018-12-17T12:35:11.628Z,4.30
2018-12-17T12:36:19.740Z,4.42
2018-12-17T12:37:27.730Z,4.50
2018-12-17T12:38:35.801Z,4.51
2018-12-17T12:39:43.877Z,4.51
2018-12-17T12:40:51.936Z,4.58
2018-12-17T12:41:59.961Z,4.62
2018-12-17T12:43:08.029Z,4.60
2018-12-17T12:44:16.086Z,4.58
2018-12-17T12:45:24.130Z,4.58
2018-12-17T12:46:32.208Z,4.59
2018-12-17T12:47:40.268Z,4.60
2018-12-17T12:48:48.333Z,4.62
2018-12-17T12:49:56.382Z,4.59
2018-12-17T12:51:04.419Z,4.59
2018-12-17T12:52:12.485Z,4.60
2018-12-17T12:53:20.543Z,4.55
2018-12-17T12:54:28.637Z,4.54
2018-12-17T12:55:36.664Z,4.45
2018-12-17T12:56:44.722Z,4.32
2018-12-17T12:57:52.773Z,4.34
2018-12-17T12:59:01.669Z,4.34
2018-12-17T13:00:08.878Z,4.27
2018-12-17T13:01:16.962Z,4.29
2018-12-17T13:02:24.990Z,4.27
2018-12-17T13:03:33.054Z,4.27
2018-12-17T13:04:41.113Z,4.27
2018-12-17T13:05:49.159Z,4.26
2018-12-17T13:06:57.221Z,4.22
2018-12-17T13:08:05.316Z,4.26
2018-12-17T13:09:13.345Z,4.23
2018-12-17T13:10:23.253Z,4.20
2018-12-17T13:11:29.681Z,4.20
2018-12-17T13:12:37.526Z,4.18
2018-12-17T13:13:45.554Z,4.16
2018-12-17T13:14:53.698Z,4.14
2018-12-17T13:16:02.193Z,4.20
2018-12-17T13:17:09.866Z,4.12
2018-12-17T13:18:18.021Z,4.08
2018-12-17T13:19:25.839Z,4.09
2018-12-17T13:20:33.985Z,4.05
2018-12-17T13:21:41.952Z,4.11
2018-12-17T13:22:50.018Z,4.11
2018-12-17T13:23:58.067Z,4.09
2018-12-17T13:25:06.138Z,4.15
2018-12-17T13:26:14.631Z,4.12
2018-12-17T13:27:22.258Z,4.06
2018-12-17T13:28:30.488Z,4.12
2018-12-17T13:29:38.355Z,4.05
2018-12-17T13:30:46.801Z,4.08
2018-12-17T13:31:54.474Z,4.00
2018-12-17T13:33:02.557Z,3.94
2018-12-17T13:34:10.798Z,3.94
2018-12-17T13:35:18.929Z,3.91
2018-12-17T13:36:26.724Z,3.86
2018-12-17T13:37:34.745Z,3.73
2018-12-17T13:38:43.178Z,3.73
2018-12-17T13:39:50.977Z,3.87
2018-12-17T13:40:58.966Z,3.79
2018-12-17T13:42:07.252Z,3.93
2018-12-17T13:43:15.042Z,3.91
2018-12-17T13:44:23.445Z,3.83
2018-12-17T13:45:31.179Z,3.91
2018-12-17T13:46:39.205Z,3.87
2018-12-17T13:47:47.251Z,3.93
2018-12-17T13:48:56.152Z,3.96
2018-12-17T13:50:03.368Z,3.96
2018-12-17T13:51:11.427Z,3.93
2018-12-17T13:52:19.648Z,4.00
2018-12-17T13:53:27.545Z,4.08
2018-12-17T13:54:35.660Z,4.06
2018-12-17T13:55:43.956Z,4.06
2018-12-17T13:56:52.069Z,4.09
2018-12-17T13:57:59.843Z,4.18
2018-12-17T13:59:08.100Z,4.14
2018-12-17T14:00:15.898Z,4.11
2018-12-17T14:01:24.277Z,4.00
2018-12-17T14:02:32.046Z,4.14
2018-12-17T14:03:40.435Z,3.98
2018-12-17T14:04:48.552Z,4.08
2018-12-17T14:05:56.241Z,4.08
2018-12-17T14:07:04.522Z,4.08
2018-12-17T14:08:12.274Z,4.02
2018-12-17T14:09:20.382Z,3.97
2018-12-17T14:10:28.396Z,3.97
2018-12-17T14:11:36.434Z,4.08
2018-12-17T14:12:44.511Z,3.96
2018-12-17T14:13:52.556Z,4.08
2018-12-17T14:15:00.618Z,4.06
2018-12-17T14:16:08.700Z,4.08
2018-12-17T14:17:16.731Z,3.97
2018-12-17T14:18:25.246Z,3.97
2018-12-17T14:19:33.368Z,3.97
2018-12-17T14:20:41.000Z,4.00
2018-12-17T14:21:49.291Z,3.94
2018-12-17T14:22:57.212Z,3.93
2018-12-17T14:24:05.588Z,3.91
2018-12-17T14:25:13.535Z,3.90
2018-12-17T14:26:21.163Z,3.97
2018-12-17T14:27:29.508Z,3.93
2018-12-17T14:28:37.651Z,3.98
2018-12-17T14:29:45.590Z,4.02
2018-12-17T14:30:53.927Z,3.93
2018-12-17T14:32:01.439Z,4.00
2018-12-17T14:33:09.813Z,3.93
2018-12-17T14:34:17.881Z,4.12
2018-12-17T14:35:25.644Z,3.98
2018-12-17T14:36:33.818Z,3.97
2018-12-17T14:37:41.734Z,3.96
2018-12-17T14:38:49.799Z,3.94
2018-12-17T14:39:58.315Z,3.90
2018-12-17T14:41:06.231Z,3.87
2018-12-17T14:42:13.967Z,3.91
2018-12-17T14:43:22.331Z,3.94
2018-12-17T14:44:30.071Z,3.91
2018-12-17T14:45:38.498Z,3.91
2018-12-17T14:46:46.192Z,3.86
2018-12-17T14:47:54.255Z,3.91
2018-12-17T14:49:02.305Z,3.76
2018-12-17T14:50:10.348Z,3.83